Canals, Argentina
Current Conditions -  °F | °C
As of 11:00 PM on Friday 21 Nov 2014 (Local Time) from SAOC Reporting Station
Clear Clear  
Wind Chill: 55°   Ceiling: Unl
Heat Index: 55°   Visibility: 6mi
Dew Point: 52°   Wind: 6mph
Humidity: 88%   Direction: 140°SE
Pressure: 30"   Gusts: NA
Location:  33.55°S, 62.88°W
Report Text: SAOC 220200Z 14005KT CAVOK 13/11 Q1016
Loading
Personal Weather Stations






























Interactive Weather Map New forecast layout! Learn more

10-Day Weather Forecast

Advertisements
Track Severe Weather on mobile